Time;durP1;ratioP1;P1;durP2;ratioP2;P2;SDS_P1;SDS_P2;PMS_P1;PMS_P2;Temp;Humidity;BMP_temperature;BMP_pressure;BME280_temperature;BME280_humidity;BME280_pressure;Samples;Min_cycle;Max_cycle;Signal;HPM_P1;HPM_P2
2021/07/30 00:00:33;;;;;;;2.57;2.23;;;14.50;99.90;;;;;;491079;240;28803;-71
2021/07/30 00:02:35;;;;;;;3.80;2.33;;;14.40;99.90;;;;;;491104;240;28757;-72
2021/07/30 00:04:36;;;;;;;5.13;2.40;;;14.40;99.90;;;;;;491099;240;28241;-69
2021/07/30 00:06:37;;;;;;;2.53;2.37;;;14.50;99.90;;;;;;491089;240;28307;-70
2021/07/30 00:08:38;;;;;;;3.33;2.80;;;14.50;99.90;;;;;;491108;241;28750;-70
2021/07/30 00:10:40;;;;;;;2.57;2.40;;;14.50;99.90;;;;;;491101;241;28432;-71
2021/07/30 00:12:41;;;;;;;2.80;2.50;;;14.40;99.90;;;;;;491115;241;28577;-71
2021/07/30 00:14:42;;;;;;;2.53;2.33;;;14.40;99.90;;;;;;491089;241;28750;-69
2021/07/30 00:16:43;;;;;;;2.20;2.10;;;14.40;99.90;;;;;;491083;241;28404;-70
2021/07/30 00:18:45;;;;;;;2.67;2.47;;;14.40;99.90;;;;;;491109;241;29014;-70
2021/07/30 00:20:46;;;;;;;2.57;2.37;;;14.40;99.90;;;;;;491083;241;29403;-70
2021/07/30 00:22:47;;;;;;;2.40;2.30;;;14.40;99.90;;;;;;491056;241;29356;-69
2021/07/30 00:24:48;;;;;;;4.43;2.60;;;14.30;99.90;;;;;;491114;241;29409;-71
2021/07/30 00:26:50;;;;;;;2.53;2.33;;;14.30;99.90;;;;;;491092;241;28388;-69
2021/07/30 00:28:52;;;;;;;2.33;2.23;;;;;;;;;;491113;240;28415;-71
2021/07/30 00:30:53;;;;;;;2.67;2.47;;;14.10;99.90;;;;;;491089;241;27409;-69
2021/07/30 00:32:55;;;;;;;2.97;2.77;;;14.00;99.90;;;;;;491120;240;28273;-68
2021/07/30 00:34:56;;;;;;;2.63;2.43;;;14.00;99.90;;;;;;491110;241;27392;-69
2021/07/30 00:36:57;;;;;;;2.67;2.47;;;13.90;99.90;;;;;;491055;241;28350;-70
2021/07/30 00:38:59;;;;;;;2.70;2.50;;;13.90;99.90;;;;;;491113;241;28170;-71
2021/07/30 00:41:03;;;;;;;2.90;2.70;;;13.90;99.90;;;;;;491103;240;28582;-69
2021/07/30 00:43:04;;;;;;;3.00;2.80;;;13.80;99.90;;;;;;491024;241;28467;-69
2021/07/30 00:45:05;;;;;;;3.10;2.90;;;13.90;99.90;;;;;;491124;240;28339;-69
2021/07/30 00:47:07;;;;;;;5.40;2.57;;;13.90;99.90;;;;;;491099;240;28298;-69
2021/07/30 00:49:08;;;;;;;2.80;2.60;;;13.90;99.90;;;;;;491099;241;28295;-69
2021/07/30 00:51:09;;;;;;;2.90;2.70;;;13.90;99.90;;;;;;491084;241;28815;-70
2021/07/30 00:53:11;;;;;;;2.90;2.70;;;13.90;99.90;;;;;;491121;241;28736;-69
2021/07/30 00:55:12;;;;;;;3.10;2.33;;;13.90;99.90;;;;;;491051;241;28806;-69
2021/07/30 00:57:13;;;;;;;2.40;2.20;;;14.00;99.90;;;;;;490975;241;28197;-69
2021/07/30 00:59:14;;;;;;;2.47;2.37;;;13.90;99.90;;;;;;491010;241;28169;-70
2021/07/30 01:01:16;;;;;;;2.27;2.17;;;13.90;99.90;;;;;;490864;241;28361;-69
2021/07/30 01:03:17;;;;;;;2.77;2.57;;;13.80;99.90;;;;;;490946;240;28340;-69
2021/07/30 01:05:19;;;;;;;2.60;2.40;;;;;;;;;;491110;240;28345;-70
2021/07/30 01:07:20;;;;;;;2.37;2.27;;;13.80;99.90;;;;;;491110;241;26977;-69
2021/07/30 01:09:22;;;;;;;2.73;2.40;;;13.70;99.90;;;;;;491124;241;28381;-69
2021/07/30 01:11:23;;;;;;;2.20;2.10;;;13.70;99.90;;;;;;491047;241;28245;-69
2021/07/30 01:13:24;;;;;;;4.10;2.23;;;13.70;99.90;;;;;;491100;241;28197;-69
2021/07/30 01:15:26;;;;;;;2.50;2.40;;;13.70;99.90;;;;;;491119;241;28778;-69
2021/07/30 01:17:27;;;;;;;2.57;2.47;;;13.70;99.90;;;;;;491087;241;28915;-69
2021/07/30 01:19:28;;;;;;;2.80;2.60;;;13.70;99.90;;;;;;491117;241;28260;-69
2021/07/30 01:21:29;;;;;;;2.70;2.60;;;13.70;99.90;;;;;;491098;241;28173;-69
2021/07/30 01:23:30;;;;;;;2.60;2.40;;;13.80;99.90;;;;;;491072;240;28229;-71
2021/07/30 01:25:32;;;;;;;3.33;2.37;;;13.80;99.90;;;;;;491105;241;28595;-71
2021/07/30 01:27:33;;;;;;;2.97;2.77;;;13.80;99.90;;;;;;491080;241;28877;-69
2021/07/30 01:29:34;;;;;;;2.47;2.37;;;13.80;99.90;;;;;;491083;241;28835;-69
2021/07/30 01:31:35;;;;;;;2.87;2.67;;;13.80;99.90;;;;;;491072;241;28755;-71
2021/07/30 01:33:37;;;;;;;2.60;2.43;;;13.90;99.90;;;;;;491086;241;28204;-68
2021/07/30 01:35:38;;;;;;;2.67;2.47;;;13.90;99.90;;;;;;491075;241;28126;-72
2021/07/30 01:37:39;;;;;;;2.13;2.03;;;13.90;99.90;;;;;;491070;241;28079;-69
2021/07/30 01:39:40;;;;;;;2.73;2.30;;;13.80;99.90;;;;;;491107;241;28306;-69
2021/07/30 01:41:42;;;;;;;2.57;2.30;;;13.80;99.90;;;;;;491057;241;28777;-70
2021/07/30 01:43:43;;;;;;;3.43;2.47;;;13.80;99.90;;;;;;491093;241;28390;-69
2021/07/30 01:45:44;;;;;;;2.67;2.47;;;13.70;99.90;;;;;;491086;241;28209;-69
2021/07/30 01:47:46;;;;;;;2.53;2.33;;;13.70;99.90;;;;;;491069;241;28181;-69
2021/07/30 01:49:47;;;;;;;2.23;2.03;;;13.70;99.90;;;;;;491074;241;28583;-69
2021/07/30 01:51:48;;;;;;;2.90;2.70;;;13.70;99.90;;;;;;491067;241;29467;-69
2021/07/30 01:53:49;;;;;;;3.63;2.53;;;13.70;99.90;;;;;;491088;241;28547;-70
2021/07/30 01:55:51;;;;;;;2.70;2.50;;;13.70;99.90;;;;;;491095;241;28695;-69
2021/07/30 01:57:52;;;;;;;2.57;2.37;;;13.70;99.90;;;;;;491071;241;28122;-68
2021/07/30 01:59:53;;;;;;;2.33;2.23;;;13.70;99.90;;;;;;491096;241;28317;-69
2021/07/30 02:01:54;;;;;;;2.90;2.70;;;13.70;99.90;;;;;;491086;241;28099;-69
2021/07/30 02:03:56;;;;;;;3.00;2.80;;;13.70;99.90;;;;;;491087;241;28181;-69
2021/07/30 02:05:58;;;;;;;3.57;2.87;;;;;;;;;;491108;241;28152;-70
2021/07/30 02:07:59;;;;;;;2.50;2.40;;;13.60;99.90;;;;;;491108;241;27179;-69
2021/07/30 02:10:00;;;;;;;2.80;2.50;;;13.60;99.90;;;;;;491099;241;28337;-69
2021/07/30 02:12:02;;;;;;;2.50;2.40;;;13.60;99.90;;;;;;491075;241;28346;-69
2021/07/30 02:14:15;;;;;;;2.90;2.70;;;13.60;99.90;;;;;;491081;241;28260;-71
2021/07/30 02:16:18;;;;;;;3.53;2.40;;;;;;;;;;491077;241;28273;-69
2021/07/30 02:18:19;;;;;;;2.90;2.47;;;13.50;99.90;;;;;;491134;241;26413;-69
2021/07/30 02:20:20;;;;;;;3.03;2.60;;;13.60;99.90;;;;;;491128;240;28173;-69
2021/07/30 02:22:21;;;;;;;2.70;2.50;;;13.60;99.90;;;;;;491100;241;28214;-69
2021/07/30 02:24:24;;;;;;;2.40;2.30;;;13.60;99.90;;;;;;491115;240;28084;-69
2021/07/30 02:26:24;;;;;;;3.20;3.00;;;13.60;99.90;;;;;;491062;241;28184;-69
2021/07/30 02:28:25;;;;;;;2.50;2.30;;;13.60;99.90;;;;;;491109;241;28444;-69
2021/07/30 02:30:28;;;;;;;2.40;2.20;;;;;;;;;;491119;240;28497;-69
2021/07/30 02:32:29;;;;;;;2.80;2.60;;;13.60;99.90;;;;;;491108;237;26557;-68
2021/07/30 02:34:30;;;;;;;2.50;2.30;;;13.60;99.90;;;;;;491089;240;28180;-69
2021/07/30 02:36:31;;;;;;;2.43;2.23;;;13.60;99.90;;;;;;491101;240;28757;-69
2021/07/30 02:38:33;;;;;;;2.60;2.40;;;13.60;99.90;;;;;;491128;241;28284;-69
2021/07/30 02:40:34;;;;;;;2.60;2.40;;;13.60;99.90;;;;;;491105;241;28443;-69
2021/07/30 02:42:35;;;;;;;2.50;2.30;;;13.60;99.90;;;;;;491112;240;28168;-71
2021/07/30 02:44:36;;;;;;;2.30;2.20;;;13.60;99.90;;;;;;491133;240;28317;-70
2021/07/30 02:46:38;;;;;;;2.27;2.07;;;13.60;99.90;;;;;;491138;241;28360;-69
2021/07/30 02:48:39;;;;;;;2.60;2.40;;;13.60;99.90;;;;;;491144;240;28179;-69
2021/07/30 02:50:40;;;;;;;2.63;2.43;;;13.60;99.90;;;;;;491132;241;28903;-69
2021/07/30 02:52:41;;;;;;;2.67;2.47;;;13.50;99.90;;;;;;491101;240;29294;-69
2021/07/30 02:54:43;;;;;;;2.80;2.60;;;13.50;99.90;;;;;;491096;241;28663;-69
2021/07/30 02:56:44;;;;;;;2.40;2.30;;;13.40;99.90;;;;;;491062;241;28245;-69
2021/07/30 02:58:45;;;;;;;2.53;2.33;;;13.40;99.90;;;;;;491118;240;28176;-69
2021/07/30 03:00:46;;;;;;;2.60;2.40;;;13.30;99.90;;;;;;491116;240;28302;-69
2021/07/30 03:02:49;;;;;;;2.40;2.30;;;13.30;99.90;;;;;;491078;240;28094;-69
2021/07/30 03:04:49;;;;;;;2.40;2.30;;;13.30;99.90;;;;;;491048;242;28268;-69
2021/07/30 03:06:50;;;;;;;2.07;1.97;;;13.30;99.90;;;;;;491084;240;28227;-69
2021/07/30 03:08:51;;;;;;;2.23;2.13;;;13.30;99.90;;;;;;491111;240;28125;-71
2021/07/30 03:10:53;;;;;;;2.90;2.70;;;13.20;99.90;;;;;;491105;240;28346;-71
2021/07/30 03:12:54;;;;;;;2.50;2.30;;;13.30;99.90;;;;;;491089;241;28677;-70
2021/07/30 03:14:55;;;;;;;2.90;2.60;;;13.30;99.90;;;;;;491103;240;28569;-71
2021/07/30 03:16:56;;;;;;;2.80;2.60;;;13.30;99.90;;;;;;491071;241;28706;-72
2021/07/30 03:18:58;;;;;;;3.07;2.60;;;13.30;99.90;;;;;;491119;241;28761;-69
2021/07/30 03:20:59;;;;;;;2.90;2.70;;;13.30;99.90;;;;;;491131;241;28699;-71
2021/07/30 03:23:00;;;;;;;2.80;2.60;;;13.30;99.90;;;;;;491081;241;28162;-70
2021/07/30 03:25:01;;;;;;;2.63;2.47;;;13.20;99.90;;;;;;491124;240;28347;-68
2021/07/30 03:27:03;;;;;;;2.43;2.23;;;13.20;99.90;;;;;;491036;241;28622;-69
2021/07/30 03:29:04;;;;;;;2.50;2.40;;;13.20;99.90;;;;;;491027;241;28268;-70
2021/07/30 03:31:05;;;;;;;2.87;2.67;;;13.20;99.90;;;;;;491097;240;28240;-69
2021/07/30 03:33:08;;;;;;;2.57;2.37;;;;;;;;;;491037;240;28115;-69
2021/07/30 03:35:09;;;;;;;2.70;2.50;;;13.10;99.90;;;;;;491124;241;26526;-69
2021/07/30 03:37:10;;;;;;;5.70;2.47;;;13.10;99.90;;;;;;491101;240;28237;-69
2021/07/30 03:39:11;;;;;;;2.40;2.20;;;13.00;99.90;;;;;;491102;241;28229;-69
2021/07/30 03:41:13;;;;;;;2.47;2.30;;;13.00;99.90;;;;;;491091;241;28102;-69
2021/07/30 03:43:14;;;;;;;2.67;2.47;;;13.00;99.90;;;;;;491076;241;28109;-69
2021/07/30 03:45:15;;;;;;;2.70;2.50;;;13.00;99.90;;;;;;491112;241;28837;-70
2021/07/30 03:47:16;;;;;;;2.60;2.40;;;12.90;99.90;;;;;;491070;241;28412;-69
2021/07/30 03:49:18;;;;;;;2.80;2.60;;;12.90;99.90;;;;;;491107;240;28454;-69
2021/07/30 03:51:19;;;;;;;3.90;2.70;;;12.80;99.90;;;;;;491102;241;28159;-69
2021/07/30 03:53:20;;;;;;;2.70;2.50;;;12.80;99.90;;;;;;491081;240;28745;-69
2021/07/30 03:55:21;;;;;;;2.60;2.37;;;12.80;99.90;;;;;;491104;241;28900;-69
2021/07/30 03:57:23;;;;;;;2.27;2.17;;;12.70;99.90;;;;;;491100;240;28793;-69
2021/07/30 03:59:24;;;;;;;5.40;2.70;;;12.70;99.90;;;;;;491114;240;28181;-69
2021/07/30 04:01:25;;;;;;;3.03;2.77;;;12.80;99.90;;;;;;491086;241;28566;-69
2021/07/30 04:03:26;;;;;;;3.00;2.73;;;12.80;99.90;;;;;;491096;241;28812;-69
2021/07/30 04:05:28;;;;;;;4.50;2.60;;;12.80;99.90;;;;;;491106;241;27969;-69
2021/07/30 04:07:29;;;;;;;2.70;2.50;;;12.80;99.90;;;;;;491119;240;28361;-69
2021/07/30 04:09:30;;;;;;;2.80;2.60;;;12.80;99.90;;;;;;491118;240;28244;-69
2021/07/30 04:11:31;;;;;;;2.43;2.30;;;12.90;99.90;;;;;;491141;241;29089;-69
2021/07/30 04:13:36;;;;;;;2.57;2.37;;;12.90;99.90;;;;;;491069;241;28530;-69
2021/07/30 04:15:37;;;;;;;2.33;2.17;;;12.80;99.90;;;;;;490878;241;28237;-69
2021/07/30 04:17:38;;;;;;;3.00;2.50;;;12.80;99.90;;;;;;491105;241;28061;-69
2021/07/30 04:19:43;;;;;;;2.63;2.33;;;12.80;99.90;;;;;;491107;241;28150;-69
2021/07/30 04:21:41;;;;;;;2.63;2.53;;;12.80;99.90;;;;;;490791;242;28302;-69
2021/07/30 04:23:42;;;;;;;2.90;2.70;;;12.80;99.90;;;;;;491105;241;28864;-69
2021/07/30 04:25:43;;;;;;;2.50;2.27;;;12.80;99.90;;;;;;491125;241;28292;-69
2021/07/30 04:27:44;;;;;;;2.63;2.43;;;12.80;99.90;;;;;;491073;241;29307;-69
2021/07/30 04:29:46;;;;;;;2.80;2.60;;;12.70;99.90;;;;;;491105;241;28412;-69
2021/07/30 04:31:47;;;;;;;6.70;2.57;;;12.70;99.90;;;;;;491081;240;28817;-70
2021/07/30 04:33:48;;;;;;;2.70;2.50;;;12.60;99.90;;;;;;491100;241;28117;-69
2021/07/30 04:35:51;;;;;;;2.47;2.30;;;;;;;;;;491088;241;28079;-69
2021/07/30 04:37:52;;;;;;;5.83;2.60;;;12.50;99.90;;;;;;491085;241;26776;-69
2021/07/30 04:39:53;;;;;;;2.97;2.77;;;12.60;99.90;;;;;;491089;241;28822;-69
2021/07/30 04:41:54;;;;;;;2.60;2.40;;;12.60;99.90;;;;;;491109;241;29460;-70
2021/07/30 04:43:56;;;;;;;2.37;2.23;;;12.70;99.90;;;;;;491080;241;28538;-69
2021/07/30 04:45:57;;;;;;;2.20;2.10;;;12.70;99.90;;;;;;491088;241;28770;-69
2021/07/30 04:47:58;;;;;;;2.53;2.33;;;12.70;99.90;;;;;;491091;241;27960;-69
2021/07/30 04:49:59;;;;;;;2.87;2.67;;;12.70;99.90;;;;;;491101;241;28223;-69
2021/07/30 04:52:01;;;;;;;2.77;2.57;;;12.70;99.90;;;;;;491094;241;28101;-70
2021/07/30 04:54:02;;;;;;;2.83;2.63;;;12.70;99.90;;;;;;491076;241;28349;-69
2021/07/30 04:56:03;;;;;;;2.60;2.40;;;12.70;99.90;;;;;;491056;240;28101;-70
2021/07/30 04:58:04;;;;;;;2.40;2.20;;;12.70;99.90;;;;;;491070;241;27990;-69
2021/07/30 05:00:06;;;;;;;3.03;2.50;;;12.80;99.90;;;;;;491088;241;28249;-69
2021/07/30 05:02:09;;;;;;;2.93;2.73;;;12.80;99.90;;;;;;491101;241;28189;-69
2021/07/30 05:04:08;;;;;;;2.77;2.20;;;12.80;99.90;;;;;;490920;242;28940;-69
2021/07/30 05:06:09;;;;;;;2.70;2.50;;;12.80;99.90;;;;;;491103;241;28617;-69
2021/07/30 05:08:11;;;;;;;2.80;2.50;;;12.90;99.90;;;;;;491065;241;28517;-69
2021/07/30 05:10:12;;;;;;;2.83;2.63;;;12.90;99.90;;;;;;491104;241;28336;-69
2021/07/30 05:12:13;;;;;;;2.30;2.20;;;12.90;99.90;;;;;;491113;241;28236;-69
2021/07/30 05:14:16;;;;;;;2.97;2.77;;;;;;;;;;491049;241;28313;-69
2021/07/30 05:16:17;;;;;;;2.50;2.30;;;13.00;99.90;;;;;;491092;241;26510;-69
2021/07/30 05:18:18;;;;;;;2.33;2.23;;;13.00;99.90;;;;;;491066;241;28585;-69
2021/07/30 05:20:19;;;;;;;2.80;2.60;;;13.00;99.90;;;;;;491130;241;28542;-69
2021/07/30 05:22:20;;;;;;;2.40;2.20;;;13.10;99.90;;;;;;491104;241;28682;-69
2021/07/30 05:24:22;;;;;;;3.07;2.87;;;13.20;99.90;;;;;;491088;241;28485;-69
2021/07/30 05:26:23;;;;;;;2.20;2.10;;;13.20;99.90;;;;;;491108;241;28168;-69
2021/07/30 05:28:24;;;;;;;2.73;2.53;;;13.30;99.90;;;;;;491067;241;28313;-69
2021/07/30 05:30:26;;;;;;;2.43;2.27;;;13.30;99.90;;;;;;491097;241;28207;-69
2021/07/30 05:32:27;;;;;;;2.40;2.23;;;13.30;99.90;;;;;;491125;241;28174;-69
2021/07/30 05:34:28;;;;;;;2.63;2.40;;;13.40;99.90;;;;;;491095;241;28436;-70
2021/07/30 05:36:29;;;;;;;2.80;2.60;;;13.40;99.90;;;;;;491108;241;28189;-69
2021/07/30 05:38:30;;;;;;;2.23;2.13;;;13.50;99.90;;;;;;491065;241;28219;-69
2021/07/30 05:40:32;;;;;;;2.87;2.63;;;13.50;99.90;;;;;;491054;241;29340;-69
2021/07/30 05:42:33;;;;;;;1.93;1.83;;;13.60;99.90;;;;;;491101;241;28543;-71
2021/07/30 05:44:35;;;;;;;2.20;2.07;;;13.70;99.90;;;;;;491062;241;28759;-71
2021/07/30 05:46:36;;;;;;;2.93;2.73;;;13.70;99.90;;;;;;491074;241;28632;-68
2021/07/30 05:48:37;;;;;;;2.47;2.27;;;13.80;99.90;;;;;;491107;240;28201;-68
2021/07/30 05:50:38;;;;;;;2.40;2.30;;;13.90;99.90;;;;;;491131;241;28750;-68
2021/07/30 05:52:39;;;;;;;2.73;2.50;;;13.90;99.90;;;;;;491146;241;28488;-68
2021/07/30 05:54:41;;;;;;;2.63;2.43;;;14.00;99.90;;;;;;491108;241;28196;-71
2021/07/30 05:56:42;;;;;;;2.70;2.50;;;14.10;99.90;;;;;;491094;241;28241;-68
2021/07/30 05:58:43;;;;;;;2.60;2.40;;;14.10;99.90;;;;;;491089;241;28383;-70
2021/07/30 06:00:44;;;;;;;2.57;2.30;;;14.20;99.90;;;;;;491122;240;28392;-68
2021/07/30 06:02:46;;;;;;;2.50;2.30;;;14.30;99.90;;;;;;491110;241;28188;-68
2021/07/30 06:04:47;;;;;;;2.87;2.67;;;14.40;99.90;;;;;;491107;241;28326;-69
2021/07/30 06:06:48;;;;;;;2.47;2.27;;;14.50;99.90;;;;;;491101;240;30079;-68
2021/07/30 06:08:49;;;;;;;3.27;2.20;;;14.60;99.90;;;;;;491105;240;28955;-68
2021/07/30 06:10:51;;;;;;;2.30;2.20;;;14.70;99.90;;;;;;491113;241;29026;-71
2021/07/30 06:12:52;;;;;;;2.87;2.40;;;14.80;99.90;;;;;;491111;240;28872;-68
2021/07/30 06:14:53;;;;;;;2.40;2.20;;;14.90;99.90;;;;;;491100;241;28334;-69
2021/07/30 06:16:54;;;;;;;2.90;2.70;;;14.90;99.90;;;;;;491120;240;28423;-71
2021/07/30 06:18:56;;;;;;;2.23;2.13;;;15.10;99.90;;;;;;491096;241;28611;-69
2021/07/30 06:20:57;;;;;;;2.30;2.20;;;15.20;99.90;;;;;;491108;241;28859;-71
2021/07/30 06:22:58;;;;;;;2.60;2.40;;;15.30;99.90;;;;;;491100;241;28335;-71
2021/07/30 06:24:59;;;;;;;2.93;2.70;;;15.40;99.90;;;;;;491088;240;28741;-72
2021/07/30 06:27:01;;;;;;;2.70;2.50;;;15.40;99.90;;;;;;491126;241;29205;-71
2021/07/30 06:29:02;;;;;;;4.00;2.33;;;15.50;99.90;;;;;;491073;241;28824;-71
2021/07/30 06:31:03;;;;;;;2.40;2.30;;;15.50;99.90;;;;;;490872;240;29429;-71
2021/07/30 06:33:04;;;;;;;2.50;2.20;;;15.70;99.90;;;;;;491105;241;29355;-69
2021/07/30 06:35:06;;;;;;;2.37;2.23;;;15.80;99.90;;;;;;491096;241;29342;-71
2021/07/30 06:37:07;;;;;;;2.77;2.57;;;15.80;99.90;;;;;;491098;240;29354;-71
2021/07/30 06:39:08;;;;;;;2.60;2.40;;;15.90;99.90;;;;;;491100;240;28813;-70
2021/07/30 06:41:09;;;;;;;2.43;2.30;;;16.00;99.90;;;;;;491116;241;28848;-71
2021/07/30 06:43:11;;;;;;;2.87;2.27;;;16.10;99.90;;;;;;491091;240;28944;-70
2021/07/30 06:45:12;;;;;;;2.63;2.40;;;16.20;99.90;;;;;;491074;240;28768;-71
2021/07/30 06:47:13;;;;;;;2.30;2.10;;;16.20;99.90;;;;;;491108;241;28751;-71
2021/07/30 06:49:14;;;;;;;2.80;2.60;;;16.30;99.90;;;;;;491067;242;28887;-71
2021/07/30 06:51:16;;;;;;;2.83;2.63;;;16.40;99.90;;;;;;491106;241;28816;-69
2021/07/30 06:53:17;;;;;;;2.70;2.50;;;16.50;99.90;;;;;;491103;241;28825;-71
2021/07/30 06:55:19;;;;;;;2.53;2.33;;;16.60;99.90;;;;;;491094;241;29419;-71
2021/07/30 06:57:19;;;;;;;2.80;2.50;;;16.70;99.90;;;;;;491098;241;29412;-71
2021/07/30 06:59:21;;;;;;;2.80;2.60;;;16.70;99.90;;;;;;491075;240;29433;-71
2021/07/30 07:01:22;;;;;;;2.70;2.50;;;16.80;99.90;;;;;;491111;241;29254;-69
2021/07/30 07:03:23;;;;;;;2.43;2.33;;;16.90;99.90;;;;;;491088;241;28710;-71
2021/07/30 07:05:24;;;;;;;3.13;2.83;;;17.00;99.90;;;;;;491080;241;28825;-71
2021/07/30 07:07:26;;;;;;;3.20;3.00;;;17.10;99.90;;;;;;491113;240;28856;-71
2021/07/30 07:09:27;;;;;;;2.67;2.57;;;17.10;99.90;;;;;;491070;241;28717;-71
2021/07/30 07:11:28;;;;;;;2.53;2.37;;;17.10;99.90;;;;;;491050;240;28872;-71
2021/07/30 07:13:29;;;;;;;2.67;2.47;;;17.20;99.90;;;;;;491125;240;28845;-71
2021/07/30 07:15:31;;;;;;;2.60;2.40;;;17.20;99.90;;;;;;491091;240;28758;-72
2021/07/30 07:17:32;;;;;;;2.63;2.50;;;17.20;99.90;;;;;;491087;241;28831;-72
2021/07/30 07:19:33;;;;;;;2.50;2.40;;;17.30;99.90;;;;;;491069;240;29255;-71
2021/07/30 07:21:34;;;;;;;2.90;2.43;;;17.40;99.90;;;;;;490977;240;29285;-71
2021/07/30 07:23:36;;;;;;;3.00;2.80;;;17.50;99.90;;;;;;491006;240;29213;-71
2021/07/30 07:25:37;;;;;;;2.83;2.50;;;17.50;99.90;;;;;;491036;240;29272;-71
2021/07/30 07:27:38;;;;;;;4.63;2.50;;;17.60;99.90;;;;;;491080;241;28751;-72
2021/07/30 07:29:39;;;;;;;3.20;3.00;;;17.80;99.90;;;;;;490961;241;28799;-71
2021/07/30 07:31:44;;;;;;;3.40;3.10;;;17.80;99.90;;;;;;491099;240;28909;-72
2021/07/30 07:33:42;;;;;;;3.03;2.70;;;17.80;99.90;;;;;;490780;242;28953;-72
2021/07/30 07:35:43;;;;;;;3.13;2.83;;;17.90;99.90;;;;;;491007;241;28753;-71
2021/07/30 07:37:44;;;;;;;3.60;2.60;;;17.90;99.90;;;;;;491066;240;28766;-71
2021/07/30 07:39:46;;;;;;;3.70;2.67;;;17.80;99.90;;;;;;490985;240;28822;-71
2021/07/30 07:41:47;;;;;;;4.43;3.03;;;17.90;99.90;;;;;;491095;241;28893;-71
2021/07/30 07:43:48;;;;;;;2.57;2.37;;;17.90;99.90;;;;;;491105;240;29430;-71
2021/07/30 07:45:49;;;;;;;3.20;2.70;;;18.00;99.90;;;;;;491091;240;29289;-71
2021/07/30 07:47:51;;;;;;;3.20;2.90;;;17.90;99.90;;;;;;491123;240;29340;-70
2021/07/30 07:49:52;;;;;;;2.30;2.20;;;17.90;99.90;;;;;;491034;240;28897;-71
2021/07/30 07:51:54;;;;;;;2.50;2.30;;;17.90;99.90;;;;;;491106;240;28860;-72
2021/07/30 07:53:54;;;;;;;2.53;2.33;;;18.00;99.90;;;;;;491109;240;28710;-70
2021/07/30 07:55:56;;;;;;;2.80;2.60;;;18.10;99.90;;;;;;491090;240;28830;-72
2021/07/30 07:57:57;;;;;;;2.87;2.67;;;18.10;99.90;;;;;;491092;240;28751;-71
2021/07/30 07:59:58;;;;;;;3.50;2.50;;;18.10;99.90;;;;;;491075;240;28734;-72
2021/07/30 08:01:59;;;;;;;2.53;2.43;;;18.20;99.90;;;;;;491103;241;28757;-71
2021/07/30 08:04:01;;;;;;;2.97;2.77;;;18.40;99.90;;;;;;491044;241;28814;-71
2021/07/30 08:06:02;;;;;;;2.80;2.60;;;18.40;99.90;;;;;;491072;240;28838;-71
2021/07/30 08:08:03;;;;;;;2.87;2.67;;;18.40;99.90;;;;;;491045;241;29407;-70
2021/07/30 08:10:05;;;;;;;3.17;2.97;;;18.30;99.90;;;;;;491080;240;29281;-70
2021/07/30 08:12:06;;;;;;;2.93;2.63;;;18.30;99.90;;;;;;491015;242;29239;-72
2021/07/30 08:14:07;;;;;;;2.80;2.60;;;18.40;99.90;;;;;;491085;240;30072;-71
2021/07/30 08:16:08;;;;;;;3.60;2.67;;;18.40;99.90;;;;;;491102;240;28817;-71
2021/07/30 08:18:09;;;;;;;3.13;2.93;;;18.40;99.90;;;;;;491105;240;28941;-71
2021/07/30 08:20:11;;;;;;;2.70;2.50;;;18.70;99.90;;;;;;491075;240;28835;-71
2021/07/30 08:22:12;;;;;;;3.20;2.90;;;18.70;99.90;;;;;;491106;240;28877;-72
2021/07/30 08:24:13;;;;;;;3.13;2.83;;;18.70;99.90;;;;;;491100;241;28841;-71
2021/07/30 08:26:14;;;;;;;2.63;2.43;;;18.70;99.90;;;;;;491070;240;28722;-71
2021/07/30 08:28:19;;;;;;;2.97;2.67;;;18.80;99.90;;;;;;491108;241;28773;-72
2021/07/30 08:30:17;;;;;;;2.67;2.50;;;18.80;99.90;;;;;;490629;242;29263;-69
2021/07/30 08:32:18;;;;;;;2.80;2.60;;;18.80;99.90;;;;;;491114;240;28828;-70
2021/07/30 08:34:19;;;;;;;3.50;3.20;;;18.70;99.90;;;;;;491105;240;28738;-70
2021/07/30 08:36:21;;;;;;;3.63;3.33;;;18.80;99.90;;;;;;491086;241;28827;-69
2021/07/30 08:38:22;;;;;;;3.10;2.90;;;18.60;99.90;;;;;;491114;241;28830;-70
2021/07/30 08:40:23;;;;;;;3.67;2.67;;;18.70;99.90;;;;;;491080;241;28770;-69
2021/07/30 08:42:24;;;;;;;3.50;3.30;;;18.70;99.90;;;;;;491110;240;28749;-69
2021/07/30 08:44:26;;;;;;;3.50;3.20;;;18.90;99.90;;;;;;491107;240;28747;-69
2021/07/30 08:46:27;;;;;;;3.33;3.13;;;19.10;99.90;;;;;;490986;242;28755;-69
2021/07/30 08:48:32;;;;;;;3.33;3.10;;;19.00;99.90;;;;;;491035;240;28761;-69
2021/07/30 08:50:31;;;;;;;5.80;3.07;;;18.90;99.90;;;;;;490554;242;29199;-69
2021/07/30 08:52:31;;;;;;;3.40;3.10;;;18.90;99.90;;;;;;490956;242;29238;-72
2021/07/30 08:54:32;;;;;;;5.13;2.80;;;18.90;99.90;;;;;;491092;240;29836;-70
2021/07/30 08:56:33;;;;;;;3.30;3.10;;;19.10;99.90;;;;;;491047;240;28834;-72
2021/07/30 08:58:34;;;;;;;3.37;3.10;;;19.00;99.90;;;;;;490987;240;28750;-72
2021/07/30 09:00:36;;;;;;;3.70;3.40;;;19.10;99.90;;;;;;490915;241;28706;-69
2021/07/30 09:02:37;;;;;;;3.33;3.00;;;19.30;99.90;;;;;;490817;241;28781;-69
2021/07/30 09:04:38;;;;;;;3.20;3.00;;;19.60;99.90;;;;;;491015;241;28845;-71
2021/07/30 09:06:39;;;;;;;3.60;3.30;;;19.70;99.90;;;;;;491104;241;28873;-70
2021/07/30 09:08:41;;;;;;;3.90;3.50;;;19.50;99.90;;;;;;491079;241;28750;-69
2021/07/30 09:10:42;;;;;;;3.50;3.20;;;19.40;99.90;;;;;;491074;241;28755;-71
2021/07/30 09:12:43;;;;;;;3.30;3.10;;;19.30;99.90;;;;;;491080;241;28799;-71
2021/07/30 09:14:44;;;;;;;3.77;3.10;;;19.30;99.90;;;;;;491098;241;29312;-71
2021/07/30 09:16:46;;;;;;;3.90;3.40;;;19.40;99.90;;;;;;491076;241;29262;-71
2021/07/30 09:18:47;;;;;;;2.90;2.70;;;19.40;99.90;;;;;;491091;241;29234;-71
2021/07/30 09:20:48;;;;;;;3.03;2.83;;;19.50;99.90;;;;;;491087;241;28714;-71
2021/07/30 09:22:49;;;;;;;2.93;2.73;;;19.60;99.90;;;;;;491077;241;28908;-71
2021/07/30 09:24:51;;;;;;;3.20;2.90;;;19.70;99.90;;;;;;491086;241;28913;-71
2021/07/30 09:26:56;;;;;;;3.47;3.17;;;19.80;99.90;;;;;;491107;240;28849;-71
2021/07/30 09:28:53;;;;;;;3.13;2.93;;;20.10;99.90;;;;;;490645;242;28921;-71
2021/07/30 09:30:54;;;;;;;3.53;3.23;;;20.40;99.90;;;;;;491111;240;28849;-71
2021/07/30 09:32:56;;;;;;;3.47;3.17;;;20.50;99.90;;;;;;491111;241;28730;-71
2021/07/30 09:34:58;;;;;;;3.50;3.20;;;20.60;99.90;;;;;;491072;241;28933;-71
2021/07/30 09:36:59;;;;;;;4.27;2.90;;;20.50;99.90;;;;;;491102;241;28097;-71
2021/07/30 09:39:00;;;;;;;3.73;3.37;;;20.50;99.90;;;;;;491100;241;29296;-71
2021/07/30 09:41:02;;;;;;;4.03;3.63;;;20.50;99.90;;;;;;491091;241;28871;-71
2021/07/30 09:43:03;;;;;;;3.33;3.07;;;20.20;99.90;;;;;;491117;241;28967;-71
2021/07/30 09:45:08;;;;;;;3.50;3.20;;;20.20;99.90;;;;;;491117;241;28823;-71
2021/07/30 09:47:06;;;;;;;3.30;3.00;;;20.10;99.90;;;;;;490729;242;28927;-72
2021/07/30 09:49:07;;;;;;;4.07;3.10;;;20.10;99.90;;;;;;491120;240;28921;-71
2021/07/30 09:51:08;;;;;;;3.60;3.30;;;20.20;99.90;;;;;;491125;241;28881;-71
2021/07/30 09:53:10;;;;;;;3.60;2.90;;;20.40;99.90;;;;;;491111;241;28824;-72
2021/07/30 09:55:10;;;;;;;3.60;3.30;;;20.50;99.90;;;;;;491066;241;28723;-71
2021/07/30 09:57:12;;;;;;;3.30;3.00;;;20.70;99.90;;;;;;491099;240;29334;-70
2021/07/30 09:59:13;;;;;;;3.00;2.80;;;20.60;99.90;;;;;;491102;241;29384;-71
2021/07/30 10:01:14;;;;;;;3.20;3.00;;;20.50;99.90;;;;;;491092;240;29315;-71
2021/07/30 10:03:15;;;;;;;4.10;3.30;;;20.40;99.90;;;;;;491109;240;29321;-71
2021/07/30 10:05:17;;;;;;;4.37;2.87;;;20.50;99.90;;;;;;491111;240;28806;-71
2021/07/30 10:07:18;;;;;;;4.47;4.07;;;20.40;99.90;;;;;;491087;241;28857;-71
2021/07/30 10:09:20;;;;;;;3.53;3.23;;;20.50;99.90;;;;;;491133;241;28816;-70
2021/07/30 10:11:20;;;;;;;3.53;3.10;;;20.40;99.90;;;;;;491100;241;28863;-70
2021/07/30 10:13:34;;;;;;;3.40;3.10;;;20.40;99.90;;;;;;491086;241;28793;-71
2021/07/30 10:15:23;;;;;;;4.07;3.60;;;20.50;99.90;;;;;;489980;242;28857;-71
2021/07/30 10:17:24;;;;;;;4.10;3.67;;;20.50;99.90;;;;;;491089;241;28857;-71
2021/07/30 10:19:25;;;;;;;3.70;3.40;;;20.60;99.90;;;;;;491113;241;28870;-71
2021/07/30 10:21:27;;;;;;;3.47;3.17;;;20.70;99.90;;;;;;491118;241;28859;-71
2021/07/30 10:23:28;;;;;;;3.87;3.57;;;20.60;99.90;;;;;;491107;241;30176;-72
2021/07/30 10:25:29;;;;;;;4.03;3.67;;;20.50;99.90;;;;;;491121;240;30087;-71
2021/07/30 10:27:30;;;;;;;3.27;3.07;;;20.60;99.90;;;;;;491132;241;29322;-69
2021/07/30 10:29:32;;;;;;;3.23;2.93;;;20.60;99.90;;;;;;491148;240;28812;-70
2021/07/30 10:31:33;;;;;;;4.60;3.60;;;20.60;99.90;;;;;;491118;241;28849;-70
2021/07/30 10:33:34;;;;;;;3.00;2.80;;;20.50;99.90;;;;;;491152;240;28870;-72